createdAt,value
2017-08-21T02:17:56.449Z,0
2017-08-21T02:19:06.702Z,0
2017-08-21T02:20:16.948Z,0
2017-08-21T02:21:26.861Z,0
2017-08-21T02:22:36.778Z,0
2017-08-21T02:23:46.867Z,0
2017-08-21T02:24:56.790Z,0
2017-08-21T02:26:06.714Z,0
2017-08-21T02:27:16.312Z,0
2017-08-21T02:28:26.549Z,0
2017-08-21T02:29:36.157Z,0
2017-08-21T02:30:46.389Z,0
2017-08-21T02:31:56.624Z,0
2017-08-21T02:33:06.248Z,0
2017-08-21T02:34:16.154Z,0
2017-08-21T02:35:25.914Z,0
2017-08-21T02:36:36.143Z,0
2017-08-21T02:37:45.455Z,0
2017-08-21T02:38:55.381Z,0
2017-08-21T02:40:05.301Z,0
2017-08-21T02:41:15.225Z,0
2017-08-21T02:42:25.156Z,0
2017-08-21T02:43:35.094Z,0
2017-08-21T02:44:44.710Z,0
2017-08-21T02:45:54.322Z,0
2017-08-21T02:47:04.261Z,0
2017-08-21T02:48:13.890Z,0
2017-08-21T02:49:23.503Z,0
2017-08-21T02:50:33.122Z,0
2017-08-21T02:51:43.059Z,0
2017-08-21T02:52:53.104Z,0
2017-08-21T02:54:03.021Z,0
2017-08-21T02:55:12.324Z,0
2017-08-21T02:56:22.274Z,0
2017-08-21T02:57:32.514Z,0
2017-08-21T02:58:42.901Z,0
2017-08-21T02:59:53.539Z,0
2017-08-21T03:01:03.484Z,0
2017-08-21T03:02:13.724Z,0
2017-08-21T03:03:23.666Z,0
2017-08-21T03:04:33.603Z,0
2017-08-21T03:05:43.214Z,0
2017-08-21T03:06:53.133Z,0
2017-08-21T03:08:03.069Z,0
2017-08-21T03:09:13.340Z,0
2017-08-21T03:10:23.575Z,0
2017-08-21T03:11:33.487Z,0
2017-08-21T03:12:42.800Z,0
2017-08-21T03:13:52.404Z,0
2017-08-21T03:15:02.017Z,0
2017-08-21T03:16:11.932Z,0
2017-08-21T03:17:21.570Z,0
2017-08-21T03:18:31.832Z,0
2017-08-21T03:19:41.468Z,0
2017-08-21T03:20:50.768Z,0
2017-08-21T03:22:01.162Z,0
2017-08-21T03:23:11.390Z,0
2017-08-21T03:24:21.633Z,0
2017-08-21T03:25:31.558Z,0
2017-08-21T03:26:41.824Z,0
2017-08-21T03:27:51.452Z,0
2017-08-21T03:29:01.085Z,0
2017-08-21T03:30:10.412Z,0
2017-08-21T03:31:20.044Z,0
2017-08-21T03:32:29.681Z,0
2017-08-21T03:33:39.759Z,0
2017-08-21T03:34:49.410Z,0
2017-08-21T03:35:59.352Z,0
2017-08-21T03:37:09.579Z,0
2017-08-21T03:38:19.504Z,0
2017-08-21T03:39:29.745Z,0
2017-08-21T03:40:39.991Z,0
2017-08-21T03:41:49.916Z,0
2017-08-21T03:42:59.238Z,0
2017-08-21T03:44:09.480Z,0
2017-08-21T03:45:19.860Z,0
2017-08-21T03:46:29.836Z,0
2017-08-21T03:47:39.771Z,0
2017-08-21T03:48:49.707Z,0
2017-08-21T03:49:59.936Z,0
2017-08-21T03:51:09.710Z,0
2017-08-21T03:52:19.957Z,0
2017-08-21T03:53:30.249Z,0
2017-08-21T03:54:40.519Z,0
2017-08-21T03:55:50.767Z,0
2017-08-21T03:57:00.535Z,0
2017-08-21T03:58:10.461Z,0
2017-08-21T03:59:20.684Z,0
2017-08-21T04:00:30.317Z,0
2017-08-21T04:01:40.241Z,0
2017-08-21T04:02:50.277Z,0
2017-08-21T04:04:00.216Z,0
2017-08-21T04:05:10.472Z,0
2017-08-21T04:06:20.404Z,0
2017-08-21T04:07:30.627Z,0
2017-08-21T04:08:40.376Z,0
2017-08-21T04:09:50.324Z,4
2017-08-21T04:11:00.272Z,0
2017-08-21T04:12:09.570Z,0
2017-08-21T04:13:19.812Z,4
2017-08-21T04:14:30.117Z,4
2017-08-21T04:15:40.368Z,4
2017-08-21T04:16:50.302Z,4
2017-08-21T04:17:59.940Z,8
2017-08-21T04:19:09.574Z,8
2017-08-21T04:20:19.656Z,8
2017-08-21T04:21:28.970Z,8
2017-08-21T04:22:39.192Z,12
2017-08-21T04:23:49.420Z,12
2017-08-21T04:24:59.357Z,16
2017-08-21T04:26:09.390Z,12
2017-08-21T04:27:19.603Z,20
2017-08-21T04:28:29.528Z,16
2017-08-21T04:29:39.451Z,20
2017-08-21T04:30:49.673Z,24
2017-08-21T04:31:59.583Z,28
2017-08-21T04:33:09.826Z,36
2017-08-21T04:34:19.734Z,36
2017-08-21T04:35:29.035Z,40
2017-08-21T04:36:39.251Z,48
2017-08-21T04:37:49.471Z,52
2017-08-21T04:38:59.083Z,60
2017-08-21T04:40:09.034Z,68
2017-08-21T04:41:18.648Z,80
2017-08-21T04:42:28.573Z,84
2017-08-21T04:43:38.896Z,96
2017-08-21T04:44:48.819Z,104
2017-08-21T04:45:58.742Z,116
2017-08-21T04:47:08.350Z,124
2017-08-21T04:48:18.276Z,136
2017-08-21T04:49:28.044Z,152
2017-08-21T04:51:13.105Z,168
2017-08-21T04:52:23.324Z,184
2017-08-21T04:53:33.235Z,204
2017-08-21T04:54:43.564Z,216
2017-08-21T04:55:53.477Z,236
2017-08-21T04:57:03.678Z,252
2017-08-21T04:58:13.584Z,264
2017-08-21T04:59:23.193Z,280
2017-08-21T05:00:33.572Z,300
2017-08-21T05:01:42.882Z,316
2017-08-21T05:02:52.807Z,336
2017-08-21T05:04:03.034Z,348
2017-08-21T05:05:13.301Z,360
2017-08-21T05:06:23.351Z,368
2017-08-21T05:07:33.264Z,388
2017-08-21T05:08:43.176Z,412
2017-08-21T05:09:53.414Z,444
2017-08-21T05:11:03.032Z,468
2017-08-21T05:12:12.644Z,492
2017-08-21T05:13:22.864Z,508
2017-08-21T05:14:32.793Z,528
2017-08-21T05:15:42.717Z,548
2017-08-21T05:16:52.928Z,560
2017-08-21T05:18:02.594Z,564
2017-08-21T05:19:12.503Z,576
2017-08-21T05:20:21.789Z,588
2017-08-21T05:21:31.707Z,592
2017-08-21T05:22:41.626Z,604
2017-08-21T05:23:51.852Z,624
2017-08-21T05:25:01.760Z,640
2017-08-21T05:26:11.667Z,652
2017-08-21T05:27:21.589Z,660
2017-08-21T05:28:31.818Z,672
2017-08-21T05:29:42.062Z,692
2017-08-21T05:30:52.309Z,772
2017-08-21T05:32:02.249Z,832
2017-08-21T05:33:12.150Z,824
2017-08-21T05:34:22.072Z,824
2017-08-21T05:35:32.294Z,892
2017-08-21T05:36:42.223Z,1032
2017-08-21T05:37:52.458Z,908
2017-08-21T05:39:02.710Z,900
2017-08-21T05:40:12.371Z,908
2017-08-21T05:41:22.633Z,936
2017-08-21T05:42:31.938Z,1040
2017-08-21T05:43:41.843Z,1248
2017-08-21T05:44:52.088Z,1248
2017-08-21T05:46:02.313Z,1100
2017-08-21T05:47:12.069Z,1212
2017-08-21T05:48:21.986Z,1112
2017-08-21T05:49:31.889Z,1316
2017-08-21T05:50:41.797Z,1184
2017-08-21T05:51:52.016Z,1328
2017-08-21T05:53:01.695Z,1316
2017-08-21T05:54:10.999Z,1588
2017-08-21T05:55:20.930Z,1648
2017-08-21T05:56:31.174Z,1728
2017-08-21T05:57:41.090Z,1864
2017-08-21T05:58:51.157Z,1916
2017-08-21T06:00:00.760Z,1980
2017-08-21T06:01:10.972Z,2032
2017-08-21T06:02:20.592Z,2100
2017-08-21T06:03:30.504Z,2136
2017-08-21T06:04:40.830Z,2188
2017-08-21T06:05:50.760Z,2212
2017-08-21T06:07:00.368Z,2184
2017-08-21T06:08:10.284Z,2144
2017-08-21T06:09:19.885Z,1968
2017-08-21T06:10:29.855Z,1752
2017-08-21T06:11:40.105Z,1700
2017-08-21T06:12:49.710Z,1688
2017-08-21T06:13:59.314Z,1788
2017-08-21T06:15:08.941Z,1788
2017-08-21T06:16:18.870Z,1780
2017-08-21T06:17:29.086Z,1784
2017-08-21T06:18:39.003Z,1796
2017-08-21T06:19:48.304Z,1856
2017-08-21T06:20:58.219Z,1940
2017-08-21T06:22:07.920Z,2044
2017-08-21T06:23:17.540Z,2076
2017-08-21T06:24:27.478Z,2036
2017-08-21T06:25:37.720Z,2024
2017-08-21T06:26:47.636Z,2036
2017-08-21T06:27:57.049Z,2020
2017-08-21T06:29:07.271Z,2012
2017-08-21T06:30:17.183Z,1980
2017-08-21T06:31:27.123Z,2004
2017-08-21T06:32:37.064Z,1960
2017-08-21T06:33:47.146Z,2008
2017-08-21T06:34:57.114Z,2016
2017-08-21T06:36:07.059Z,2008
2017-08-21T06:37:17.316Z,2000
2017-08-21T06:38:26.931Z,2036
2017-08-21T06:39:37.472Z,2048
2017-08-21T06:40:47.393Z,2048
2017-08-21T06:41:57.337Z,2064
2017-08-21T06:43:07.247Z,2060
2017-08-21T06:44:17.469Z,2060
2017-08-21T06:45:27.134Z,2072
2017-08-21T06:46:37.362Z,2096
2017-08-21T06:47:47.609Z,2108
2017-08-21T06:48:57.532Z,2128
2017-08-21T06:50:07.763Z,2148
2017-08-21T06:51:17.746Z,2184
2017-08-21T06:52:27.719Z,2236
2017-08-21T06:53:37.641Z,2280
2017-08-21T06:54:47.877Z,2332
2017-08-21T06:55:57.501Z,2380
2017-08-21T06:57:07.798Z,2424
2017-08-21T06:58:17.108Z,2448
2017-08-21T06:59:27.033Z,2472
2017-08-21T07:00:36.953Z,2516
2017-08-21T07:01:46.557Z,2548
2017-08-21T07:02:56.244Z,2580
2017-08-21T07:04:05.866Z,2600
2017-08-21T07:05:15.796Z,2632
2017-08-21T07:06:25.412Z,2668
2017-08-21T07:07:35.100Z,2692
2017-08-21T07:08:44.884Z,2720
2017-08-21T07:09:54.504Z,2736
2017-08-21T07:11:04.417Z,2772
2017-08-21T07:12:14.353Z,2800
2017-08-21T07:13:24.273Z,2832
2017-08-21T07:14:34.506Z,2864
2017-08-21T07:15:44.152Z,2896
2017-08-21T07:16:54.068Z,2932
2017-08-21T07:18:04.019Z,2960
2017-08-21T07:19:13.647Z,2984
2017-08-21T07:20:23.267Z,3012
2017-08-21T07:21:32.880Z,3048
2017-08-21T07:22:43.111Z,3088
2017-08-21T07:23:53.408Z,3124
2017-08-21T07:25:03.329Z,3156
2017-08-21T07:26:13.269Z,3168
2017-08-21T07:27:23.497Z,3172
2017-08-21T07:28:33.448Z,3188
2017-08-21T07:29:43.096Z,3220
2017-08-21T07:30:52.722Z,3280
2017-08-21T07:32:02.738Z,3360
2017-08-21T07:33:12.346Z,3476
2017-08-21T07:34:21.973Z,3612
2017-08-21T07:35:31.901Z,3988
2017-08-21T07:36:42.140Z,12128
2017-08-21T07:37:52.064Z,25184
2017-08-21T07:39:01.983Z,27616
2017-08-21T07:40:11.595Z,27840
2017-08-21T07:41:21.516Z,28384
2017-08-21T07:42:31.435Z,28896
2017-08-21T07:43:41.725Z,30592
2017-08-21T07:44:51.967Z,31584
2017-08-21T07:46:02.218Z,31424
2017-08-21T07:47:12.149Z,30592
2017-08-21T07:48:22.098Z,32064
2017-08-21T07:49:32.019Z,31232
2017-08-21T07:50:41.940Z,29984
2017-08-21T07:51:51.896Z,32064
2017-08-21T07:53:01.220Z,33536
2017-08-21T07:54:11.445Z,29152
2017-08-21T07:55:21.786Z,27840
2017-08-21T07:56:31.396Z,27840
2017-08-21T07:57:41.629Z,28352
2017-08-21T07:58:50.940Z,29792
2017-08-21T08:00:00.550Z,30272
2017-08-21T08:01:10.017Z,30816
2017-08-21T08:02:20.241Z,32544
2017-08-21T08:03:30.473Z,31712
2017-08-21T08:04:40.435Z,31104
2017-08-21T08:05:50.372Z,32224
2017-08-21T08:06:59.801Z,32672
2017-08-21T08:08:09.417Z,29920
2017-08-21T08:09:19.350Z,22176
2017-08-21T08:10:29.597Z,9232
2017-08-21T08:11:39.544Z,4080
2017-08-21T08:12:49.488Z,3868
2017-08-21T08:13:58.883Z,4032
2017-08-21T08:15:08.196Z,3692
2017-08-21T08:16:18.117Z,3672
2017-08-21T08:17:27.746Z,4336
2017-08-21T08:18:37.825Z,8800
2017-08-21T08:19:47.498Z,10040
2017-08-21T08:20:57.423Z,5340
2017-08-21T08:22:07.663Z,4128
2017-08-21T08:23:17.936Z,3968
2017-08-21T08:24:27.886Z,3852
2017-08-21T08:25:37.817Z,3732
2017-08-21T08:26:47.424Z,3624
2017-08-21T08:27:57.035Z,3516
2017-08-21T08:29:06.687Z,3416
2017-08-21T08:30:17.034Z,3348
2017-08-21T08:31:26.954Z,3296
2017-08-21T08:32:37.185Z,3264
2017-08-21T08:33:47.431Z,3248
2017-08-21T08:34:57.357Z,3224
2017-08-21T08:36:07.280Z,3212
2017-08-21T08:37:16.596Z,3196
2017-08-21T08:38:25.920Z,3172
2017-08-21T08:39:35.842Z,3164
2017-08-21T08:40:46.102Z,3164
2017-08-21T08:41:56.021Z,3172
2017-08-21T08:43:05.654Z,3164
2017-08-21T08:44:15.885Z,3144
2017-08-21T08:45:26.120Z,3144
2017-08-21T08:46:36.033Z,3136
2017-08-21T08:47:46.259Z,3120
2017-08-21T08:48:56.177Z,3120
2017-08-21T08:50:05.476Z,3120
2017-08-21T08:51:15.143Z,3120
2017-08-21T08:52:24.452Z,3128
2017-08-21T08:53:34.373Z,3128
2017-08-21T08:54:44.604Z,3136
2017-08-21T08:55:54.221Z,3144
2017-08-21T08:57:03.560Z,3164
2017-08-21T08:58:13.812Z,3152
2017-08-21T08:59:24.036Z,3156
2017-08-21T09:00:33.648Z,3164
2017-08-21T09:01:43.279Z,3164
2017-08-21T09:02:52.886Z,3144
2017-08-21T09:04:02.801Z,3120
2017-08-21T09:05:13.090Z,3084
2017-08-21T09:06:23.340Z,3048
2017-08-21T09:07:33.284Z,3028
2017-08-21T09:08:42.935Z,3016
2017-08-21T09:09:52.554Z,3004
2017-08-21T09:11:02.246Z,2992
2017-08-21T09:12:12.481Z,2980
2017-08-21T09:13:23.101Z,2972
2017-08-21T09:14:33.024Z,2968
2017-08-21T09:15:42.954Z,2956
2017-08-21T09:16:53.352Z,2964
2017-08-21T09:18:02.990Z,2952
2017-08-21T09:19:12.606Z,2940
2017-08-21T09:20:21.601Z,2920
2017-08-21T09:21:30.905Z,2900
2017-08-21T09:22:40.684Z,2892
2017-08-21T09:23:50.592Z,2888
2017-08-21T09:25:00.225Z,2880
2017-08-21T09:26:10.160Z,2896
2017-08-21T09:27:19.797Z,2888
2017-08-21T09:28:30.044Z,2884
2017-08-21T09:29:40.303Z,2852
2017-08-21T09:30:50.260Z,2796
2017-08-21T09:31:59.570Z,2760
2017-08-21T09:33:09.502Z,2724
2017-08-21T09:34:19.729Z,2700
2017-08-21T09:35:29.361Z,2680
2017-08-21T09:36:39.290Z,2664
2017-08-21T09:37:49.567Z,2652
2017-08-21T09:38:59.834Z,2644
2017-08-21T09:40:09.147Z,2632
2017-08-21T09:41:19.095Z,2640
2017-08-21T09:42:28.447Z,2532
2017-08-21T09:43:38.061Z,2492
2017-08-21T09:44:48.303Z,2496
2017-08-21T09:45:58.646Z,2448
2017-08-21T09:47:08.890Z,2512
2017-08-21T09:48:18.812Z,2508
2017-08-21T09:49:28.751Z,2464
2017-08-21T09:50:38.672Z,2484
2017-08-21T09:51:48.614Z,2496
2017-08-21T09:52:58.548Z,2576
2017-08-21T09:54:08.475Z,2464
2017-08-21T09:55:18.700Z,2456
2017-08-21T09:56:28.618Z,2400
2017-08-21T09:57:37.956Z,2340
2017-08-21T09:58:47.923Z,2332
2017-08-21T09:59:58.163Z,2484
2017-08-21T10:01:08.396Z,2624
2017-08-21T10:02:18.014Z,2620
2017-08-21T10:03:27.752Z,2580
2017-08-21T10:04:37.698Z,2496
2017-08-21T10:05:47.623Z,2432
2017-08-21T10:06:57.233Z,2356
2017-08-21T10:08:07.484Z,2384
2017-08-21T10:09:17.564Z,2348
2017-08-21T10:10:27.488Z,2376
2017-08-21T10:11:36.793Z,2332
2017-08-21T10:12:46.419Z,2272
2017-08-21T10:13:56.334Z,2340
2017-08-21T10:15:06.424Z,2392
2017-08-21T10:16:16.442Z,2416
2017-08-21T10:17:25.782Z,2448
2017-08-21T10:18:36.013Z,2392
2017-08-21T10:19:45.975Z,2388
2017-08-21T10:20:55.969Z,2412
2017-08-21T10:22:05.903Z,2416
2017-08-21T10:23:16.142Z,2412
2017-08-21T10:24:25.460Z,2312
2017-08-21T10:25:34.775Z,2284
2017-08-21T10:26:44.385Z,2332
2017-08-21T10:27:54.300Z,2460
2017-08-21T10:29:04.550Z,2452
2017-08-21T10:30:14.487Z,2340
2017-08-21T10:31:24.127Z,2340
2017-08-21T10:32:33.659Z,2356
2017-08-21T10:33:43.615Z,2304
2017-08-21T10:34:53.574Z,2244
2017-08-21T10:36:03.818Z,2220
2017-08-21T10:37:13.439Z,2220
2017-08-21T10:38:24.041Z,2228
2017-08-21T10:39:34.258Z,2168
2017-08-21T10:40:44.495Z,2032
2017-08-21T10:41:54.427Z,2096
2017-08-21T10:43:04.895Z,2304
2017-08-21T10:44:14.690Z,2280
2017-08-21T10:45:24.612Z,2180
2017-08-21T10:46:34.566Z,2004
2017-08-21T10:47:44.488Z,1856
2017-08-21T10:48:54.420Z,1788
2017-08-21T10:50:04.814Z,1724
2017-08-21T10:51:14.465Z,1640
2017-08-21T10:52:24.392Z,1628
2017-08-21T10:53:34.636Z,1668
2017-08-21T10:54:44.250Z,1876
2017-08-21T10:55:53.713Z,1988
2017-08-21T10:57:03.964Z,2004
2017-08-21T10:58:13.896Z,1944
2017-08-21T10:59:23.825Z,1984
2017-08-21T11:00:33.449Z,2076
2017-08-21T11:01:43.826Z,2184
2017-08-21T11:02:53.469Z,2240
2017-08-21T11:04:03.394Z,2300
2017-08-21T11:05:13.009Z,2284
2017-08-21T11:06:22.620Z,2252
2017-08-21T11:07:32.559Z,2176
2017-08-21T11:08:42.503Z,2100
2017-08-21T11:09:52.740Z,2016
2017-08-21T11:11:02.981Z,2028
2017-08-21T11:12:12.914Z,2148
2017-08-21T11:13:22.561Z,2168
2017-08-21T11:14:32.805Z,2152
2017-08-21T11:15:42.737Z,2124
2017-08-21T11:16:52.050Z,2068
2017-08-21T11:18:02.275Z,2116
2017-08-21T11:19:12.366Z,2084
2017-08-21T11:20:22.000Z,2052
2017-08-21T11:21:31.624Z,2144
2017-08-21T11:22:40.956Z,2152
2017-08-21T11:23:51.193Z,2108
2017-08-21T11:25:00.878Z,2072
2017-08-21T11:26:10.825Z,2048
2017-08-21T11:27:20.444Z,2056
2017-08-21T11:28:30.372Z,2068
2017-08-21T11:29:40.616Z,1996
2017-08-21T11:30:50.953Z,1964
2017-08-21T11:32:00.871Z,1928
2017-08-21T11:33:11.184Z,1884
2017-08-21T11:34:21.450Z,1876
2017-08-21T11:35:31.698Z,1952
2017-08-21T11:36:41.460Z,1972
2017-08-21T11:37:51.409Z,1900
2017-08-21T11:39:01.648Z,1928
2017-08-21T11:40:11.954Z,1928
2017-08-21T11:41:22.036Z,1916
2017-08-21T11:42:32.025Z,1900
2017-08-21T11:43:42.251Z,1792
2017-08-21T11:44:52.206Z,1764
2017-08-21T11:46:02.122Z,1796
2017-08-21T11:47:11.466Z,1756
2017-08-21T11:48:21.801Z,1824
2017-08-21T11:49:31.745Z,1896
2017-08-21T11:50:41.985Z,1848
2017-08-21T11:51:51.613Z,1832
2017-08-21T11:53:01.235Z,1796
2017-08-21T11:54:11.170Z,1804
2017-08-21T11:55:20.771Z,1772
2017-08-21T11:56:30.387Z,1816
2017-08-21T11:57:40.617Z,1792
2017-08-21T11:58:50.883Z,1748
2017-08-21T12:00:00.873Z,1772
2017-08-21T12:01:11.130Z,1824
2017-08-21T12:02:21.056Z,1824
2017-08-21T12:03:30.969Z,1832
2017-08-21T12:04:41.196Z,1864
2017-08-21T12:05:51.275Z,1820
2017-08-21T12:07:01.214Z,1808
2017-08-21T12:08:11.153Z,1856
2017-08-21T12:09:21.078Z,1788
2017-08-21T12:10:30.999Z,1852
2017-08-21T12:11:40.361Z,1904
2017-08-21T12:12:50.305Z,1840
2017-08-21T12:13:59.994Z,1784
2017-08-21T12:15:09.606Z,1736
2017-08-21T12:16:19.841Z,1656
2017-08-21T12:17:29.566Z,1648
2017-08-21T12:18:39.497Z,1672
2017-08-21T12:19:49.413Z,1712
2017-08-21T12:20:59.670Z,1764
2017-08-21T12:22:09.002Z,1748
2017-08-21T12:23:18.324Z,1744
2017-08-21T12:24:28.553Z,1748
2017-08-21T12:25:39.425Z,1784
2017-08-21T12:26:48.755Z,1780
2017-08-21T12:27:58.087Z,1764
2017-08-21T12:29:07.869Z,1744
2017-08-21T12:30:17.178Z,1700
2017-08-21T12:31:26.485Z,1628
2017-08-21T12:32:36.737Z,1660
2017-08-21T12:33:46.961Z,1684
2017-08-21T12:34:57.212Z,1692
2017-08-21T12:36:07.453Z,1712
2017-08-21T12:37:17.691Z,1752
2017-08-21T12:38:27.394Z,1800
2017-08-21T12:39:36.463Z,1776
2017-08-21T12:40:46.550Z,1768
2017-08-21T12:41:56.507Z,1740
2017-08-21T12:43:06.425Z,1744
2017-08-21T12:44:16.342Z,1856
2017-08-21T12:45:26.649Z,1896
2017-08-21T12:46:36.124Z,1756
2017-08-21T12:47:46.038Z,1680
2017-08-21T12:48:56.263Z,1796
2017-08-21T12:50:06.498Z,1740
2017-08-21T12:51:16.464Z,1720
2017-08-21T12:52:25.766Z,1696
2017-08-21T12:53:35.997Z,1736
2017-08-21T12:54:46.233Z,1840
2017-08-21T12:55:55.911Z,1876
2017-08-21T12:57:05.864Z,1924
2017-08-21T12:58:16.257Z,1868
2017-08-21T12:59:26.164Z,1828
2017-08-21T13:00:36.404Z,1772
2017-08-21T13:01:46.325Z,1768
2017-08-21T13:02:56.261Z,1648
2017-08-21T13:04:06.240Z,1616
2017-08-21T13:05:16.170Z,1612
2017-08-21T13:06:25.784Z,1620
2017-08-21T13:07:35.422Z,1620
2017-08-21T13:08:45.373Z,1620
2017-08-21T13:09:54.393Z,1640
2017-08-21T13:11:04.311Z,1664
2017-08-21T13:12:13.661Z,1660
2017-08-21T13:13:23.900Z,1588
2017-08-21T13:14:33.817Z,1532
2017-08-21T13:15:43.435Z,1540
2017-08-21T13:16:53.092Z,1532
2017-08-21T13:18:02.414Z,1472
2017-08-21T13:19:12.656Z,1416
2017-08-21T13:20:22.578Z,1416
2017-08-21T13:21:32.512Z,1388
2017-08-21T13:22:42.781Z,1320
2017-08-21T13:23:52.397Z,1260
2017-08-21T13:25:02.022Z,1208
2017-08-21T13:26:12.259Z,1220
2017-08-21T13:27:22.644Z,1208
2017-08-21T13:28:32.582Z,1156
2017-08-21T13:29:42.193Z,1156
2017-08-21T13:30:51.824Z,1224
2017-08-21T13:32:00.850Z,1272
2017-08-21T13:33:11.272Z,1248
2017-08-21T13:34:20.615Z,1160
2017-08-21T13:35:30.237Z,1032
2017-08-21T13:36:39.891Z,1012
2017-08-21T13:37:49.845Z,1092
2017-08-21T13:39:00.068Z,1120
2017-08-21T13:40:09.372Z,1140
2017-08-21T13:41:18.985Z,1156
2017-08-21T13:42:28.287Z,1252
2017-08-21T13:43:37.906Z,1312
2017-08-21T13:44:47.978Z,1356
2017-08-21T13:45:57.701Z,1412
2017-08-21T13:47:06.706Z,1444
2017-08-21T13:48:16.331Z,1416
2017-08-21T13:49:25.779Z,1396
2017-08-21T13:50:35.497Z,1396
2017-08-21T13:51:45.120Z,1412
2017-08-21T13:52:55.045Z,1360
2017-08-21T13:54:04.758Z,1288
2017-08-21T13:55:14.725Z,1308
2017-08-21T13:56:24.992Z,1292
2017-08-21T13:57:34.628Z,1352
2017-08-21T13:58:44.872Z,1388
2017-08-21T13:59:54.507Z,1328
2017-08-21T14:01:04.750Z,1272
2017-08-21T14:02:14.667Z,1188
2017-08-21T14:03:24.279Z,1248
2017-08-21T14:04:33.604Z,1244
2017-08-21T14:05:43.566Z,1296
2017-08-21T14:06:53.790Z,1312
2017-08-21T14:08:04.014Z,1292
2017-08-21T14:09:14.285Z,1352
2017-08-21T14:10:24.206Z,1344
2017-08-21T14:11:34.454Z,1352
2017-08-21T14:12:44.370Z,1388
2017-08-21T14:13:54.029Z,1404
2017-08-21T14:15:04.269Z,1428
2017-08-21T14:16:14.206Z,1472
2017-08-21T14:17:24.136Z,1456
2017-08-21T14:18:34.071Z,1428
2017-08-21T14:19:43.382Z,1436
2017-08-21T14:20:53.315Z,1396
2017-08-21T14:22:03.563Z,1324
2017-08-21T14:23:13.504Z,1332
2017-08-21T14:24:23.128Z,1340
2017-08-21T14:25:33.357Z,1344
2017-08-21T14:26:43.002Z,1384
2017-08-21T14:27:53.258Z,1380
2017-08-21T14:29:03.509Z,1344
2017-08-21T14:30:13.439Z,1340
2017-08-21T14:31:23.977Z,1380
2017-08-21T14:32:33.916Z,1332
2017-08-21T14:33:43.837Z,1300
2017-08-21T14:34:53.753Z,1312
2017-08-21T14:36:03.681Z,1336
2017-08-21T14:37:13.007Z,1296
2017-08-21T14:38:22.926Z,1256
2017-08-21T14:39:32.255Z,1272
2017-08-21T14:40:41.893Z,1224
2017-08-21T14:41:51.844Z,1228
2017-08-21T14:43:01.301Z,1256
2017-08-21T14:44:11.234Z,1236
2017-08-21T14:45:20.882Z,1236
2017-08-21T14:46:30.497Z,1228
2017-08-21T14:47:40.106Z,1252
2017-08-21T14:48:49.875Z,1328
2017-08-21T14:49:59.489Z,1328
2017-08-21T14:51:09.130Z,1332
2017-08-21T14:52:19.369Z,1312
2017-08-21T14:53:29.304Z,1300
2017-08-21T14:54:38.926Z,1292
2017-08-21T14:55:48.540Z,1300
2017-08-21T14:56:58.760Z,1300
2017-08-21T14:58:08.384Z,1272
2017-08-21T14:59:17.727Z,1280
2017-08-21T15:00:27.949Z,1268
2017-08-21T15:01:38.209Z,1276
2017-08-21T15:02:48.486Z,1264
2017-08-21T15:03:58.411Z,1256
2017-08-21T15:05:07.739Z,1284
2017-08-21T15:06:17.681Z,1340
2017-08-21T15:07:27.632Z,1464
2017-08-21T15:08:37.558Z,1508
2017-08-21T15:09:47.804Z,1464
2017-08-21T15:10:57.413Z,1472
2017-08-21T15:12:07.666Z,1476
2017-08-21T15:13:17.609Z,1420
2017-08-21T15:14:27.880Z,1380
2017-08-21T15:15:37.488Z,1332
2017-08-21T15:16:47.717Z,1292
2017-08-21T15:17:57.813Z,1268
2017-08-21T15:19:08.094Z,1224
2017-08-21T15:20:18.061Z,1216
2017-08-21T15:21:27.992Z,1176
2017-08-21T15:22:37.618Z,1196
2017-08-21T15:23:47.248Z,1220
2017-08-21T15:24:57.174Z,1188
2017-08-21T15:26:07.100Z,1172
2017-08-21T15:27:17.023Z,1168
2017-08-21T15:28:27.247Z,1164
2017-08-21T15:29:36.867Z,1160
2017-08-21T15:30:46.492Z,1184
2017-08-21T15:31:56.429Z,1128
2017-08-21T15:33:06.369Z,1164
2017-08-21T15:34:16.281Z,1244
2017-08-21T15:35:26.496Z,1196
2017-08-21T15:36:36.750Z,1160
2017-08-21T15:37:46.061Z,1132
2017-08-21T15:38:55.988Z,1044
2017-08-21T15:40:05.947Z,964
2017-08-21T15:41:16.480Z,980
2017-08-21T15:42:26.724Z,956
2017-08-21T15:43:36.653Z,924
2017-08-21T15:44:46.876Z,908
2017-08-21T15:45:57.111Z,840
2017-08-21T15:47:07.054Z,876
2017-08-21T15:48:17.286Z,920
2017-08-21T15:49:27.517Z,880
2017-08-21T15:50:37.786Z,792
2017-08-21T15:51:47.409Z,764
2017-08-21T15:52:57.351Z,784
2017-08-21T15:54:07.598Z,864
2017-08-21T15:55:17.554Z,856
2017-08-21T15:56:27.780Z,844
2017-08-21T15:57:37.401Z,832
2017-08-21T15:58:47.644Z,824
2017-08-21T15:59:57.255Z,800
2017-08-21T16:01:07.183Z,796
2017-08-21T16:02:17.418Z,788
2017-08-21T16:03:27.690Z,780
2017-08-21T16:04:37.478Z,744
2017-08-21T16:05:47.404Z,736
2017-08-21T16:06:57.026Z,764
2017-08-21T16:08:07.266Z,744
2017-08-21T16:09:17.494Z,760
2017-08-21T16:10:27.738Z,808
2017-08-21T16:11:37.697Z,836
2017-08-21T16:12:47.310Z,848
2017-08-21T16:13:57.228Z,808
2017-08-21T16:15:06.867Z,716
2017-08-21T16:16:16.951Z,696
2017-08-21T16:17:27.198Z,712
2017-08-21T16:18:36.808Z,704
2017-08-21T16:19:46.417Z,700
2017-08-21T16:20:56.324Z,736
2017-08-21T16:22:05.377Z,752
2017-08-21T16:23:15.652Z,792
2017-08-21T16:24:25.861Z,800
2017-08-21T16:25:35.494Z,796
2017-08-21T16:26:45.109Z,780
2017-08-21T16:27:54.725Z,768
2017-08-21T16:29:04.340Z,792
2017-08-21T16:30:13.973Z,796
2017-08-21T16:31:23.904Z,796
2017-08-21T16:32:33.837Z,792
2017-08-21T16:33:43.761Z,792
2017-08-21T16:34:53.988Z,768
2017-08-21T16:36:03.605Z,708
2017-08-21T16:37:14.137Z,648
2017-08-21T16:38:23.773Z,632
2017-08-21T16:39:33.404Z,604
2017-08-21T16:40:43.051Z,596
2017-08-21T16:41:53.303Z,588
2017-08-21T16:43:03.333Z,588
2017-08-21T16:44:13.572Z,556
2017-08-21T16:45:23.184Z,508
2017-08-21T16:46:33.459Z,496
2017-08-21T16:47:43.087Z,492
2017-08-21T16:48:52.454Z,488
2017-08-21T16:50:02.380Z,492
2017-08-21T16:51:12.634Z,508
2017-08-21T16:52:22.875Z,532
2017-08-21T16:53:33.112Z,520
2017-08-21T16:54:42.929Z,508
2017-08-21T16:55:52.877Z,472
2017-08-21T16:57:02.502Z,440
2017-08-21T16:58:13.110Z,428
2017-08-21T16:59:22.781Z,424
2017-08-21T17:00:33.163Z,440
2017-08-21T17:01:42.883Z,412
2017-08-21T17:02:52.278Z,412
2017-08-21T17:04:01.601Z,424
2017-08-21T17:05:11.940Z,428
2017-08-21T17:06:22.456Z,432
2017-08-21T17:07:32.747Z,436
2017-08-21T17:08:43.099Z,432
2017-08-21T17:09:53.564Z,428
2017-08-21T17:11:03.197Z,440
2017-08-21T17:12:13.193Z,444
2017-08-21T17:13:23.109Z,436
2017-08-21T17:14:33.354Z,432
2017-08-21T17:15:43.599Z,416
2017-08-21T17:16:52.905Z,404
2017-08-21T17:18:02.831Z,404
2017-08-21T17:19:12.776Z,420
2017-08-21T17:20:22.681Z,440
2017-08-21T17:21:32.900Z,420
2017-08-21T17:22:42.821Z,372
2017-08-21T17:23:53.198Z,356
2017-08-21T17:25:03.116Z,348
2017-08-21T17:26:12.796Z,340
2017-08-21T17:27:22.434Z,336
2017-08-21T17:28:32.373Z,332
2017-08-21T17:29:42.610Z,324
2017-08-21T17:30:51.913Z,320
2017-08-21T17:32:01.856Z,316
2017-08-21T17:33:11.818Z,308
2017-08-21T17:34:21.486Z,284
2017-08-21T17:35:31.497Z,276
2017-08-21T17:36:40.827Z,264
2017-08-21T17:37:50.136Z,260
2017-08-21T17:38:59.747Z,260
2017-08-21T17:40:09.676Z,248
2017-08-21T17:41:19.448Z,252
2017-08-21T17:42:29.698Z,248
2017-08-21T17:43:39.345Z,252
2017-08-21T17:44:48.979Z,260
2017-08-21T17:45:59.207Z,208
2017-08-21T17:47:09.239Z,208
2017-08-21T17:48:18.874Z,216
2017-08-21T17:49:28.503Z,212
2017-08-21T17:50:38.128Z,212
2017-08-21T17:51:47.736Z,208
2017-08-21T17:52:57.507Z,200
2017-08-21T17:54:07.420Z,200
2017-08-21T17:55:17.363Z,188
2017-08-21T17:56:27.586Z,184
2017-08-21T17:57:37.813Z,180
2017-08-21T17:58:47.539Z,176
2017-08-21T17:59:57.843Z,172
2017-08-21T18:01:07.782Z,164
2017-08-21T18:02:17.728Z,160
2017-08-21T18:03:27.376Z,152
2017-08-21T18:04:37.313Z,148
2017-08-21T18:05:47.236Z,144
2017-08-21T18:06:57.453Z,140
2017-08-21T18:08:07.675Z,136